createdAt,value
2018-05-24T00:01:42.269Z,99134.12
2018-05-24T00:04:10.557Z,99140.55
2018-05-24T00:06:38.814Z,99141.80
2018-05-24T00:09:07.121Z,99130.05
2018-05-24T00:11:36.296Z,99135.99
2018-05-24T00:14:04.601Z,99135.36
2018-05-24T00:16:33.677Z,99132.91
2018-05-24T00:19:01.999Z,99133.41
2018-05-24T00:21:31.051Z,99133.52
2018-05-24T00:23:59.806Z,99136.22
2018-05-24T00:26:28.077Z,99139.61
2018-05-24T00:28:56.567Z,99137.92
2018-05-24T00:31:24.860Z,99132.93
2018-05-24T00:33:53.106Z,99137.31
2018-05-24T00:36:21.414Z,99132.56
2018-05-24T00:38:49.670Z,99126.53
2018-05-24T00:41:17.964Z,99127.26
2018-05-24T00:43:46.245Z,99122.75
2018-05-24T00:46:14.738Z,99122.09
2018-05-24T00:48:43.922Z,99126.47
2018-05-24T00:51:12.487Z,99123.98
2018-05-24T00:53:40.750Z,99123.63
2018-05-24T00:56:09.065Z,99120.78
2018-05-24T00:58:37.327Z,99115.30
2018-05-24T01:01:05.758Z,99115.13
2018-05-24T01:03:34.027Z,99115.50
2018-05-24T01:06:02.327Z,99119.39
2018-05-24T01:08:30.602Z,99120.09
2018-05-24T01:10:59.526Z,99121.78
2018-05-24T01:13:27.825Z,99123.16
2018-05-24T01:15:56.102Z,99124.98
2018-05-24T01:18:24.375Z,99122.36
2018-05-24T01:20:52.642Z,99118.31
2018-05-24T01:23:20.938Z,99117.43
2018-05-24T01:25:49.510Z,99124.55
2018-05-24T01:28:17.817Z,99121.75
2018-05-24T01:30:46.091Z,99128.69
2018-05-24T01:33:14.406Z,99124.61
2018-05-24T01:35:43.348Z,99119.75
2018-05-24T01:38:12.350Z,99121.52
2018-05-24T01:40:40.626Z,99120.42
2018-05-24T01:43:08.914Z,99111.27
2018-05-24T01:45:37.170Z,99110.68
2018-05-24T01:48:05.452Z,99103.16
2018-05-24T01:50:34.226Z,99110.19
2018-05-24T01:53:02.598Z,99111.59
2018-05-24T01:55:30.889Z,99108.20
2018-05-24T01:57:59.178Z,99107.75
2018-05-24T02:00:27.469Z,99108.38
2018-05-24T02:02:55.829Z,99102.91
2018-05-24T02:05:24.102Z,99097.60
2018-05-24T02:07:53.095Z,99096.05
2018-05-24T02:10:21.415Z,99097.83
2018-05-24T02:12:49.671Z,99094.18
2018-05-24T02:15:17.969Z,99090.94
2018-05-24T02:17:46.233Z,99084.79
2018-05-24T02:20:14.629Z,99079.86
2018-05-24T02:22:43.111Z,99086.17
2018-05-24T02:25:11.484Z,99091.50
2018-05-24T02:27:39.763Z,99097.45
2018-05-24T02:30:08.146Z,99099.14
2018-05-24T02:32:36.415Z,99094.86
2018-05-24T02:35:05.060Z,99094.63
2018-05-24T02:37:33.327Z,99089.73
2018-05-24T02:40:01.620Z,99087.57
2018-05-24T02:42:29.894Z,99093.59
2018-05-24T02:44:58.615Z,99038.25
2018-05-24T02:47:26.988Z,99096.12
2018-05-24T02:49:55.358Z,99096.86
2018-05-24T02:52:24.666Z,99097.89
2018-05-24T02:54:52.929Z,99098.63
2018-05-24T02:57:21.263Z,99098.14
2018-05-24T02:59:49.626Z,99101.34
2018-05-24T03:02:18.195Z,99103.48
2018-05-24T03:04:46.819Z,99101.83
2018-05-24T03:07:15.123Z,99106.38
2018-05-24T03:09:43.414Z,99106.64
2018-05-24T03:12:11.902Z,99110.78
2018-05-24T03:14:40.179Z,99107.58
2018-05-24T03:17:08.486Z,99114.63
2018-05-24T03:19:36.766Z,99119.12
2018-05-24T03:22:05.871Z,99117.11
2018-05-24T03:24:34.131Z,99120.75
2018-05-24T03:27:02.457Z,99122.94
2018-05-24T03:29:30.741Z,99122.58
2018-05-24T03:31:59.041Z,99135.91
2018-05-24T03:34:27.372Z,99132.18
2018-05-24T03:36:55.657Z,99134.92
2018-05-24T03:39:24.187Z,99122.63
2018-05-24T03:41:52.665Z,99142.77
2018-05-24T03:44:20.993Z,99139.03
2018-05-24T03:46:49.275Z,99133.80
2018-05-24T03:49:17.881Z,99129.64
2018-05-24T03:51:46.750Z,99124.69
2018-05-24T03:54:15.062Z,99132.08
2018-05-24T03:56:43.333Z,99125.16
2018-05-24T04:02:41.609Z,99119.08
2018-05-24T04:05:09.912Z,99124.97
2018-05-24T04:07:38.238Z,99120.05
2018-05-24T04:10:06.754Z,99122.70
2018-05-24T04:12:35.041Z,99118.48
2018-05-24T04:15:03.806Z,99117.48
2018-05-24T04:17:32.605Z,99116.67
2018-05-24T04:20:01.026Z,99118.18
2018-05-24T04:22:29.294Z,99115.88
2018-05-24T04:24:57.594Z,99105.38
2018-05-24T04:27:25.865Z,99097.29
2018-05-24T04:29:54.600Z,99097.52
2018-05-24T04:32:22.886Z,99092.09
2018-05-24T04:34:51.574Z,99095.78
2018-05-24T04:37:20.377Z,99092.93
2018-05-24T04:39:48.671Z,99085.93
2018-05-24T04:42:17.165Z,99087.45
2018-05-24T04:44:45.458Z,99089.09
2018-05-24T04:47:13.835Z,99097.38
2018-05-24T04:49:42.141Z,99099.45
2018-05-24T04:52:10.469Z,99095.89
2018-05-24T04:54:39.126Z,99100.59
2018-05-24T04:57:08.105Z,99101.83
2018-05-24T04:59:36.410Z,99107.45
2018-05-24T05:02:05.774Z,99109.67
2018-05-24T05:04:34.054Z,99101.17
2018-05-24T05:07:02.363Z,99105.83
2018-05-24T05:09:31.455Z,99105.23
2018-05-24T05:11:59.742Z,99100.36
2018-05-24T05:14:28.053Z,99090.73
2018-05-24T05:16:56.374Z,99091.39
2018-05-24T05:19:24.659Z,99096.68
2018-05-24T05:21:53.275Z,99098.25
2018-05-24T05:24:21.538Z,99099.60
2018-05-24T05:26:49.831Z,99103.34
2018-05-24T05:29:18.110Z,99109.85
2018-05-24T05:31:46.415Z,99112.91
2018-05-24T05:34:14.686Z,99110.42
2018-05-24T05:36:43.028Z,99121.07
2018-05-24T05:39:11.300Z,99116.45
2018-05-24T05:41:39.619Z,99121.28
2018-05-24T05:44:07.898Z,99126.48
2018-05-24T05:46:36.202Z,99124.70
2018-05-24T05:49:05.445Z,99112.84
2018-05-24T05:51:34.377Z,99131.27
2018-05-24T05:54:02.703Z,99133.72
2018-05-24T05:56:30.983Z,99136.69
2018-05-24T05:58:59.278Z,99132.47
2018-05-24T06:01:27.555Z,99134.47
2018-05-24T06:03:55.871Z,99136.17
2018-05-24T06:06:24.146Z,99139.64
2018-05-24T06:08:52.438Z,99140.38
2018-05-24T06:11:21.397Z,99140.06
2018-05-24T06:13:49.759Z,99140.42
2018-05-24T06:16:17.975Z,99141.25
2018-05-24T06:18:46.558Z,99145.39
2018-05-24T06:21:14.802Z,99151.02
2018-05-24T06:23:43.101Z,99148.05
2018-05-24T06:26:11.362Z,99147.09
2018-05-24T06:28:39.671Z,99144.17
2018-05-24T06:31:08.350Z,99145.98
2018-05-24T06:33:36.748Z,99152.56
2018-05-24T06:36:05.042Z,99153.25
2018-05-24T06:38:33.335Z,99153.17
2018-05-24T06:41:01.607Z,99153.77
2018-05-24T06:43:29.907Z,99160.73
2018-05-24T06:45:58.182Z,99159.94
2018-05-24T06:48:26.491Z,99152.16
2018-05-24T06:50:54.775Z,99147.31
2018-05-24T06:53:23.057Z,99152.14
2018-05-24T06:55:51.364Z,99154.11
2018-05-24T06:58:19.638Z,99148.63
2018-05-24T07:00:48.554Z,99148.66
2018-05-24T07:03:16.841Z,99124.89
2018-05-24T07:05:45.181Z,99149.09
2018-05-24T07:08:13.457Z,99148.41
2018-05-24T07:10:41.816Z,99144.70
2018-05-24T07:13:10.106Z,99143.17
2018-05-24T07:15:38.426Z,99143.11
2018-05-24T07:18:06.715Z,99146.28
2018-05-24T07:20:35.070Z,99142.91
2018-05-24T07:23:03.365Z,99145.59
2018-05-24T07:25:31.884Z,99154.20
2018-05-24T07:28:00.638Z,99151.05
2018-05-24T07:30:28.978Z,99160.84
2018-05-24T07:32:57.255Z,99160.48
2018-05-24T07:35:25.688Z,99154.11
2018-05-24T07:37:54.034Z,99151.64
2018-05-24T07:40:22.223Z,99154.72
2018-05-24T07:42:50.522Z,99153.61
2018-05-24T07:45:18.823Z,99155.17
2018-05-24T07:47:47.087Z,99154.16
2018-05-24T07:50:15.376Z,99151.00
2018-05-24T07:52:43.729Z,99156.22
2018-05-24T07:55:12.018Z,99155.33
2018-05-24T07:57:40.312Z,99153.98
2018-05-24T08:00:08.590Z,99153.03
2018-05-24T08:02:36.897Z,99144.38
2018-05-24T08:05:05.650Z,99157.80
2018-05-24T08:07:33.982Z,99156.46
2018-05-24T08:10:02.313Z,99152.69
2018-05-24T08:12:30.597Z,99156.77
2018-05-24T08:14:58.873Z,99158.59
2018-05-24T08:17:27.414Z,99153.23
2018-05-24T08:19:55.783Z,99153.31
2018-05-24T08:22:24.079Z,99154.48
2018-05-24T08:24:52.670Z,99158.12
2018-05-24T08:27:20.938Z,99161.19
2018-05-24T08:29:49.223Z,99155.30
2018-05-24T08:32:17.583Z,99145.94
2018-05-24T08:34:45.858Z,99139.95
2018-05-24T08:37:14.169Z,99136.28
2018-05-24T08:39:42.497Z,99131.41
2018-05-24T08:42:10.745Z,99127.16
2018-05-24T08:44:39.050Z,99119.88
2018-05-24T08:47:08.136Z,99124.45
2018-05-24T08:49:36.547Z,99126.35
2018-05-24T08:52:05.541Z,99120.45
2018-05-24T08:54:33.859Z,99124.41
2018-05-24T08:57:02.146Z,99124.64
2018-05-24T08:59:30.430Z,99132.06
2018-05-24T09:01:59.142Z,99134.00
2018-05-24T09:04:27.613Z,99113.23
2018-05-24T09:07:02.424Z,99128.45
2018-05-24T09:09:36.748Z,99123.23
2018-05-24T09:12:10.943Z,99124.95
2018-05-24T09:14:45.222Z,99128.92
2018-05-24T09:17:19.304Z,99131.17
2018-05-24T09:19:53.507Z,99129.59
2018-05-24T09:22:27.641Z,99127.39
2018-05-24T09:25:01.950Z,99128.45
2018-05-24T09:27:36.098Z,99129.06
2018-05-24T09:30:10.445Z,99125.05
2018-05-24T09:32:44.778Z,99127.36
2018-05-24T09:35:18.943Z,99127.47
2018-05-24T09:37:53.105Z,99129.06
2018-05-24T09:40:27.246Z,99123.56
2018-05-24T09:43:01.454Z,99121.55
2018-05-24T09:45:35.653Z,99109.13
2018-05-24T09:48:09.749Z,99114.73
2018-05-24T09:50:44.047Z,99119.42
2018-05-24T09:53:18.215Z,99111.78
2018-05-24T09:55:52.401Z,99111.13
2018-05-24T09:58:26.672Z,99108.11
2018-05-24T10:01:00.859Z,99092.55
2018-05-24T10:03:35.365Z,99094.73
2018-05-24T10:06:09.639Z,99093.75
2018-05-24T10:08:43.734Z,99096.44
2018-05-24T10:11:18.079Z,99093.58
2018-05-24T10:13:52.193Z,99094.66
2018-05-24T10:16:26.505Z,99092.85
2018-05-24T10:19:00.565Z,99086.61
2018-05-24T10:21:34.914Z,99087.66
2018-05-24T10:24:09.109Z,99088.88
2018-05-24T10:26:43.325Z,99089.21
2018-05-24T10:29:18.154Z,99088.48
2018-05-24T10:31:52.449Z,99082.98
2018-05-24T10:34:27.664Z,99070.05
2018-05-24T10:37:01.825Z,99081.42
2018-05-24T10:39:36.220Z,99081.22
2018-05-24T10:42:10.453Z,99080.41
2018-05-24T10:44:44.755Z,99060.05
2018-05-24T10:47:19.096Z,99076.16
2018-05-24T10:49:53.343Z,99066.05
2018-05-24T10:52:27.622Z,99075.73
2018-05-24T10:55:01.831Z,99080.14
2018-05-24T10:57:36.073Z,99074.58
2018-05-24T11:00:10.298Z,99071.17
2018-05-24T11:02:45.283Z,99068.77
2018-05-24T11:05:20.102Z,99065.95
2018-05-24T11:07:54.650Z,99062.34
2018-05-24T11:10:28.825Z,99048.14
2018-05-24T11:13:02.937Z,99054.66
2018-05-24T11:15:37.192Z,99054.63
2018-05-24T11:18:11.489Z,99046.72
2018-05-24T11:20:45.884Z,99044.94
2018-05-24T11:23:20.159Z,99053.66
2018-05-24T11:25:54.363Z,99046.39
2018-05-24T11:28:28.705Z,99050.73
2018-05-24T11:31:03.209Z,99042.64
2018-05-24T11:33:37.941Z,99038.75
2018-05-24T11:36:12.050Z,99034.50
2018-05-24T11:38:46.227Z,99032.55
2018-05-24T11:41:20.418Z,99036.48
2018-05-24T11:43:54.618Z,99029.58
2018-05-24T11:46:28.796Z,99034.80
2018-05-24T11:49:03.169Z,99038.39
2018-05-24T11:51:37.456Z,99033.30
2018-05-24T11:54:11.699Z,99028.62
2018-05-24T11:56:45.970Z,99028.72
2018-05-24T11:59:20.297Z,99029.39
2018-05-24T12:01:55.518Z,99032.31
2018-05-24T12:04:29.763Z,99033.17
2018-05-24T12:07:05.071Z,99025.16
2018-05-24T12:09:39.498Z,99022.31
2018-05-24T12:12:13.854Z,99025.23
2018-05-24T12:14:48.087Z,99027.04
2018-05-24T12:17:22.564Z,99027.91
2018-05-24T12:19:56.787Z,99020.49
2018-05-24T12:22:30.947Z,99033.84
2018-05-24T12:25:05.499Z,99027.11
2018-05-24T12:27:39.711Z,99014.16
2018-05-24T12:30:13.848Z,99002.19
2018-05-24T12:32:48.168Z,99005.44
2018-05-24T12:35:22.321Z,99002.91
2018-05-24T12:37:56.410Z,99002.25
2018-05-24T12:40:30.635Z,99000.71
2018-05-24T12:43:04.802Z,99007.00
2018-05-24T12:45:39.086Z,99002.08
2018-05-24T12:48:14.046Z,98995.94
2018-05-24T12:50:48.305Z,98994.11
2018-05-24T12:53:22.478Z,98978.84
2018-05-24T12:55:57.414Z,98985.95
2018-05-24T12:58:31.570Z,98995.55
2018-05-24T13:01:05.789Z,99013.23
2018-05-24T13:03:40.024Z,99021.52
2018-05-24T13:06:14.916Z,99024.23
2018-05-24T13:08:49.124Z,99012.72
2018-05-24T13:11:23.390Z,99015.35
2018-05-24T13:13:57.510Z,99020.34
2018-05-24T13:16:31.865Z,99027.92
2018-05-24T13:19:06.247Z,99028.81
2018-05-24T13:21:40.475Z,99022.32
2018-05-24T13:24:14.749Z,99021.19
2018-05-24T13:26:49.027Z,99022.86
2018-05-24T13:29:23.275Z,99019.39
2018-05-24T13:31:57.611Z,99014.41
2018-05-24T13:34:31.727Z,99008.09
2018-05-24T13:37:06.039Z,99011.16
2018-05-24T13:39:40.138Z,99011.39
2018-05-24T13:42:14.279Z,99017.33
2018-05-24T13:44:48.494Z,99022.08
2018-05-24T13:47:22.626Z,99026.45
2018-05-24T13:49:57.169Z,99025.66
2018-05-24T13:52:31.470Z,99027.17
2018-05-24T13:55:05.734Z,99034.53
2018-05-24T13:57:45.801Z,99043.01
2018-05-24T14:00:20.016Z,99046.55
2018-05-24T14:02:54.190Z,99045.06
2018-05-24T14:05:28.304Z,99043.09
2018-05-24T14:08:03.045Z,99045.00
2018-05-24T14:10:37.192Z,99043.99
2018-05-24T14:15:51.754Z,99037.23
2018-05-24T14:18:25.891Z,99037.84
2018-05-24T14:21:00.009Z,99035.17
2018-05-24T14:23:34.366Z,99020.01
2018-05-24T14:26:08.703Z,99024.68
2018-05-24T14:28:42.825Z,99026.23
2018-05-24T14:31:17.123Z,98961.50
2018-05-24T14:33:51.330Z,99012.75
2018-05-24T14:36:25.446Z,99011.48
2018-05-24T14:38:59.770Z,99010.45
2018-05-24T14:41:34.008Z,99003.10
2018-05-24T14:44:08.257Z,99018.91
2018-05-24T14:46:42.440Z,99004.86
2018-05-24T14:49:16.608Z,99009.04
2018-05-24T14:51:50.926Z,99007.94
2018-05-24T14:54:25.147Z,99006.42
2018-05-24T14:56:59.285Z,99006.17
2018-05-24T14:59:33.614Z,99000.74
2018-05-24T15:02:07.861Z,98997.91
2018-05-24T15:04:43.238Z,98997.84
2018-05-24T15:07:17.466Z,98992.55
2018-05-24T15:09:51.797Z,99000.83
2018-05-24T15:12:25.947Z,99001.78
2018-05-24T15:15:00.385Z,99002.66
2018-05-24T15:17:34.445Z,98997.66
2018-05-24T15:20:08.653Z,98993.36
2018-05-24T15:22:42.777Z,98991.52
2018-05-24T15:25:16.994Z,98992.31
2018-05-24T15:27:51.185Z,98995.64
2018-05-24T15:30:25.345Z,98987.02
2018-05-24T15:32:59.627Z,98981.87
2018-05-24T15:35:34.079Z,98986.53
2018-05-24T15:38:08.201Z,98986.53
2018-05-24T15:40:42.516Z,98981.19
2018-05-24T15:43:16.634Z,98980.56
2018-05-24T15:45:50.786Z,98972.48
2018-05-24T15:48:24.952Z,98966.95
2018-05-24T15:50:59.106Z,98967.28
2018-05-24T15:53:33.389Z,98970.67
2018-05-24T15:56:08.030Z,98968.95
2018-05-24T15:58:42.162Z,98977.86
2018-05-24T16:01:16.459Z,98989.83
2018-05-24T16:03:50.699Z,98986.41
2018-05-24T16:06:24.951Z,98982.30
2018-05-24T16:08:59.738Z,98983.40
2018-05-24T16:11:33.965Z,98977.64
2018-05-24T16:14:02.245Z,98973.15
2018-05-24T16:16:31.364Z,98970.42
2018-05-24T16:18:59.697Z,98968.05
2018-05-24T16:21:28.017Z,98961.72
2018-05-24T16:23:56.319Z,98959.63
2018-05-24T16:26:24.603Z,98958.99
2018-05-24T16:28:52.913Z,98968.05
2018-05-24T16:31:21.187Z,98965.61
2018-05-24T16:33:49.495Z,98959.08
2018-05-24T16:36:17.765Z,98948.44
2018-05-24T16:38:46.125Z,98955.60
2018-05-24T16:41:14.394Z,98956.09
2018-05-24T16:43:42.706Z,98959.72
2018-05-24T16:46:10.986Z,98960.91
2018-05-24T16:48:39.289Z,98960.53
2018-05-24T16:51:07.552Z,98960.97
2018-05-24T16:53:35.867Z,98954.39
2018-05-24T16:56:05.073Z,98957.94
2018-05-24T16:58:33.366Z,98964.92
2018-05-24T17:01:01.903Z,98968.41
2018-05-24T17:03:30.895Z,98973.38
2018-05-24T17:05:59.218Z,98968.56
2018-05-24T17:08:27.505Z,98978.48
2018-05-24T17:10:55.818Z,98970.89
2018-05-24T17:13:24.134Z,98976.14
2018-05-24T17:15:52.436Z,98975.49
2018-05-24T17:18:20.715Z,98981.95
2018-05-24T17:20:49.001Z,98972.86
2018-05-24T17:23:17.297Z,98978.77
2018-05-24T17:25:45.578Z,98969.70
2018-05-24T17:28:15.177Z,98969.73
2018-05-24T17:30:43.667Z,98970.50
2018-05-24T17:33:12.026Z,98975.44
2018-05-24T17:35:40.523Z,98974.41
2018-05-24T17:38:09.716Z,98981.53
2018-05-24T17:40:38.012Z,98985.02
2018-05-24T17:43:06.295Z,98989.84
2018-05-24T17:45:34.576Z,98991.53
2018-05-24T17:48:02.866Z,98992.03
2018-05-24T17:50:31.132Z,98992.77
2018-05-24T17:52:59.425Z,98997.31
2018-05-24T17:55:27.694Z,98996.86
2018-05-24T17:57:56.015Z,98993.33
2018-05-24T18:00:24.301Z,98994.62
2018-05-24T18:02:52.698Z,98994.52
2018-05-24T18:05:20.999Z,98994.67
2018-05-24T18:07:49.294Z,98988.50
2018-05-24T18:10:18.102Z,98989.34
2018-05-24T18:12:46.367Z,98982.72
2018-05-24T18:15:14.638Z,98987.63
2018-05-24T18:17:43.143Z,98995.75
2018-05-24T18:20:11.418Z,98998.41
2018-05-24T18:22:40.176Z,99003.35
2018-05-24T18:25:08.476Z,99010.71
2018-05-24T18:27:36.785Z,99007.17
2018-05-24T18:30:05.417Z,99004.83
2018-05-24T18:32:33.678Z,99008.08
2018-05-24T18:35:01.967Z,99011.55
2018-05-24T18:37:30.277Z,99012.72
2018-05-24T18:39:58.577Z,99002.80
2018-05-24T18:42:26.862Z,99019.69
2018-05-24T18:44:55.154Z,99014.96
2018-05-24T18:47:23.433Z,99015.86
2018-05-24T18:49:51.748Z,99018.25
2018-05-24T18:52:20.013Z,99022.30
2018-05-24T18:54:48.319Z,99024.59
2018-05-24T18:57:16.575Z,99028.62
2018-05-24T18:59:44.890Z,99026.00
2018-05-24T19:02:13.167Z,99024.61
2018-05-24T19:04:41.478Z,99021.19
2018-05-24T19:07:09.762Z,99021.97
2018-05-24T19:09:38.070Z,99032.56
2018-05-24T19:12:06.692Z,99036.41
2018-05-24T19:14:34.989Z,99035.49
2018-05-24T19:17:03.270Z,99037.62
2018-05-24T19:19:31.578Z,99036.77
2018-05-24T19:21:59.857Z,99043.50
2018-05-24T19:24:28.162Z,99047.61
2018-05-24T19:26:56.456Z,99045.89
2018-05-24T19:29:24.942Z,99053.01
2018-05-24T19:31:54.153Z,99051.38
2018-05-24T19:34:22.431Z,99058.17
2018-05-24T19:36:50.896Z,99059.30
2018-05-24T19:39:20.121Z,99062.39
2018-05-24T19:41:48.440Z,99069.56
2018-05-24T19:44:16.726Z,99070.10
2018-05-24T19:46:45.023Z,99076.11
2018-05-24T19:49:13.352Z,99082.62
2018-05-24T19:51:42.004Z,99101.56
2018-05-24T19:54:10.293Z,99106.52
2018-05-24T19:56:38.586Z,99101.37
2018-05-24T19:59:06.887Z,99097.94
2018-05-24T20:01:35.183Z,99095.48
2018-05-24T20:04:03.451Z,99093.67
2018-05-24T20:06:31.767Z,99098.16
2018-05-24T20:09:00.040Z,99099.67
2018-05-24T20:11:28.354Z,99103.12
2018-05-24T20:13:56.636Z,99093.73
2018-05-24T20:16:24.972Z,99103.04
2018-05-24T20:18:54.279Z,99009.32
2018-05-24T20:21:22.608Z,99111.22
2018-05-24T20:23:50.931Z,99107.13
2018-05-24T20:26:19.224Z,99109.27
2018-05-24T20:28:48.550Z,99105.31
2018-05-24T20:31:16.844Z,99106.36
2018-05-24T20:33:45.184Z,99103.50
2018-05-24T20:36:13.449Z,99093.80
2018-05-24T20:38:41.813Z,99090.64
2018-05-24T20:41:10.101Z,99087.95
2018-05-24T20:43:38.545Z,99083.64
2018-05-24T20:46:07.055Z,99090.33
2018-05-24T20:48:35.436Z,99074.16
2018-05-24T20:51:03.759Z,99076.38
2018-05-24T20:53:32.062Z,99074.42
2018-05-24T20:56:04.371Z,99063.09
2018-05-24T20:58:32.814Z,99064.17
2018-05-24T21:01:01.095Z,99059.61
2018-05-24T21:03:29.434Z,99063.91
2018-05-24T21:05:58.455Z,99067.77
2018-05-24T21:08:27.054Z,99068.78
2018-05-24T21:10:55.342Z,99064.30
2018-05-24T21:13:23.790Z,99067.22
2018-05-24T21:15:52.191Z,99066.50
2018-05-24T21:18:20.545Z,99060.59
2018-05-24T21:20:49.038Z,99062.33
2018-05-24T21:23:17.360Z,99067.95
2018-05-24T21:25:45.681Z,99059.66
2018-05-24T21:28:14.049Z,99056.83
2018-05-24T21:30:42.456Z,99059.88
2018-05-24T21:33:10.671Z,99057.67
2018-05-24T21:35:38.973Z,99058.94
2018-05-24T21:38:07.246Z,99055.17
2018-05-24T21:40:35.556Z,99050.03
2018-05-24T21:43:04.871Z,99053.89
2018-05-24T21:45:33.202Z,99051.42
2018-05-24T21:48:01.448Z,99058.03
2018-05-24T21:50:29.801Z,99064.93
2018-05-24T21:52:58.074Z,99024.90
2018-05-24T21:55:26.418Z,99064.16
2018-05-24T21:57:54.710Z,99075.94
2018-05-24T22:00:23.025Z,99076.19
2018-05-24T22:02:53.164Z,99076.84
2018-05-24T22:05:21.506Z,99075.42
2018-05-24T22:07:49.969Z,99076.06
2018-05-24T22:10:18.383Z,99071.39
2018-05-24T22:12:46.733Z,99072.91
2018-05-24T22:15:15.146Z,99075.33
2018-05-24T22:17:43.651Z,99070.38
2018-05-24T22:20:11.970Z,99080.27
2018-05-24T22:22:40.276Z,99078.84
2018-05-24T22:25:08.706Z,99074.67
2018-05-24T22:27:38.086Z,99081.70
2018-05-24T22:30:06.353Z,99081.61
2018-05-24T22:32:34.666Z,99088.66
2018-05-24T22:35:02.970Z,99085.95
2018-05-24T22:37:31.265Z,99084.73
2018-05-24T22:39:59.588Z,99089.92
2018-05-24T22:42:28.037Z,99086.22
2018-05-24T22:44:56.322Z,99087.84
2018-05-24T22:47:24.655Z,99084.55
2018-05-24T22:49:52.993Z,99086.71
2018-05-24T22:52:22.006Z,99092.58
2018-05-24T22:54:50.289Z,99094.05
2018-05-24T22:57:18.587Z,99086.83
2018-05-24T22:59:46.875Z,99085.52
2018-05-24T23:02:15.162Z,99091.27
2018-05-24T23:04:43.435Z,99091.55
2018-05-24T23:07:12.222Z,99093.02
2018-05-24T23:09:40.505Z,99097.43
2018-05-24T23:12:09.343Z,99093.87
2018-05-24T23:14:37.682Z,99088.81
2018-05-24T23:17:05.954Z,99094.53
2018-05-24T23:19:34.257Z,99095.13
2018-05-24T23:22:02.532Z,99091.26
2018-05-24T23:24:30.922Z,99095.44
2018-05-24T23:26:59.426Z,99086.59
2018-05-24T23:29:27.775Z,99086.30
2018-05-24T23:31:56.045Z,99085.99
2018-05-24T23:34:24.406Z,99089.77
2018-05-24T23:36:52.928Z,99091.88
2018-05-24T23:39:21.918Z,99095.70
2018-05-24T23:41:50.184Z,99099.97
2018-05-24T23:44:18.504Z,99094.20
2018-05-24T23:46:46.786Z,99093.50
2018-05-24T23:49:15.139Z,99090.12
2018-05-24T23:51:43.652Z,99095.73
2018-05-24T23:54:13.525Z,99099.70
2018-05-24T23:56:41.810Z,99103.21
2018-05-24T23:59:10.146Z,99103.09
